createdAt,value
2023-04-18T00:01:23.510Z,9.90
2023-04-18T00:04:26.078Z,9.20
2023-04-18T00:07:29.729Z,9.13
2023-04-18T00:10:32.880Z,8.50
2023-04-18T00:13:35.866Z,9.45
2023-04-18T00:16:38.954Z,8.63
2023-04-18T00:19:42.025Z,9.20
2023-04-18T00:22:44.862Z,8.93
2023-04-18T00:25:47.919Z,9.10
2023-04-18T00:28:50.802Z,7.60
2023-04-18T00:31:53.433Z,7.47
2023-04-18T00:34:57.021Z,7.40
2023-04-18T00:37:59.560Z,7.35
2023-04-18T00:41:02.209Z,6.75
2023-04-18T00:44:04.924Z,7.45
2023-04-18T00:47:07.245Z,5.78
2023-04-18T00:50:09.975Z,6.90
2023-04-18T00:53:14.499Z,6.65
2023-04-18T00:56:16.797Z,6.05
2023-04-18T00:59:19.599Z,8.13
2023-04-18T01:02:21.995Z,7.63
2023-04-18T01:05:24.323Z,7.00
2023-04-18T01:08:26.932Z,7.38
2023-04-18T01:11:32.952Z,9.18
2023-04-18T01:14:35.182Z,7.68
2023-04-18T01:17:38.965Z,7.75
2023-04-18T01:20:41.363Z,8.20
2023-04-18T01:23:44.461Z,6.88
2023-04-18T01:26:50.162Z,7.63
2023-04-18T01:29:52.791Z,7.25
2023-04-18T01:32:56.127Z,6.20
2023-04-18T01:36:01.653Z,8.23
2023-04-18T01:39:06.883Z,5.70
2023-04-18T01:42:10.556Z,6.82
2023-04-18T01:45:14.171Z,6.43
2023-04-18T01:48:17.101Z,6.63
2023-04-18T01:51:19.653Z,7.10
2023-04-18T01:54:22.046Z,7.20
2023-04-18T01:57:24.621Z,5.85
2023-04-18T02:00:27.502Z,6.85
2023-04-18T02:03:30.946Z,7.78
2023-04-18T02:06:33.366Z,6.47
2023-04-18T02:09:35.919Z,5.75
2023-04-18T02:12:38.791Z,7.07
2023-04-18T02:15:40.909Z,5.90
2023-04-18T02:18:43.314Z,6.63
2023-04-18T02:21:46.065Z,5.68
2023-04-18T02:24:49.855Z,6.82
2023-04-18T02:27:52.471Z,5.90
2023-04-18T02:30:55.457Z,6.00
2023-04-18T02:33:57.692Z,6.32
2023-04-18T02:37:00.349Z,5.95
2023-04-18T02:40:03.332Z,6.05
2023-04-18T02:43:07.670Z,7.63
2023-04-18T02:46:10.079Z,5.65
2023-04-18T02:49:12.604Z,6.05
2023-04-18T02:52:14.625Z,7.32
2023-04-18T02:55:16.998Z,6.47
2023-04-18T02:58:20.392Z,6.47
2023-04-18T03:01:47.846Z,6.80
2023-04-18T03:04:53.267Z,5.80
2023-04-18T03:07:55.410Z,8.43
2023-04-18T03:10:58.078Z,6.95
2023-04-18T03:14:02.894Z,7.00
2023-04-18T03:17:15.248Z,6.53
2023-04-18T03:20:23.283Z,6.13
2023-04-18T03:23:27.936Z,6.20
2023-04-18T03:26:31.305Z,7.13
2023-04-18T03:29:36.949Z,8.63
2023-04-18T03:32:39.868Z,6.88
2023-04-18T03:35:42.362Z,7.57
2023-04-18T03:38:44.948Z,7.45
2023-04-18T03:41:47.757Z,6.88
2023-04-18T03:44:50.533Z,6.88
2023-04-18T03:47:53.306Z,6.07
2023-04-18T03:50:57.839Z,6.50
2023-04-18T03:54:01.205Z,6.25
2023-04-18T03:57:04.595Z,7.45
2023-04-18T04:00:09.584Z,6.05
2023-04-18T04:03:17.581Z,5.72
2023-04-18T04:06:21.664Z,6.35
2023-04-18T04:09:24.718Z,7.45
2023-04-18T04:12:27.340Z,7.05
2023-04-18T04:15:29.713Z,7.28
2023-04-18T04:18:39.031Z,8.02
2023-04-18T04:21:42.272Z,7.38
2023-04-18T04:24:48.292Z,7.13
2023-04-18T04:27:55.799Z,7.30
2023-04-18T04:30:59.461Z,7.07
2023-04-18T04:34:02.317Z,7.47
2023-04-18T04:37:05.178Z,6.32
2023-04-18T04:40:14.248Z,8.43
2023-04-18T04:43:23.516Z,7.47
2023-04-18T04:46:27.176Z,7.55
2023-04-18T04:49:29.954Z,7.55
2023-04-18T04:52:32.529Z,6.72
2023-04-18T04:55:36.195Z,7.32
2023-04-18T04:58:40.067Z,6.50
2023-04-18T05:01:47.404Z,7.68
2023-04-18T05:04:50.532Z,8.30
2023-04-18T05:07:52.777Z,7.60
2023-04-18T05:10:55.614Z,6.13
2023-04-18T05:13:58.421Z,6.75
2023-04-18T05:17:01.203Z,7.45
2023-04-18T05:20:04.524Z,7.97
2023-04-18T05:23:07.843Z,8.45
2023-04-18T05:26:10.899Z,7.03
2023-04-18T05:29:13.718Z,8.27
2023-04-18T05:32:16.577Z,6.38
2023-04-18T05:35:20.146Z,6.78
2023-04-18T05:38:23.038Z,7.60
2023-04-18T05:41:25.753Z,8.30
2023-04-18T05:44:28.658Z,7.45
2023-04-18T05:47:31.622Z,6.80
2023-04-18T05:50:35.483Z,7.97
2023-04-18T05:53:38.523Z,8.68
2023-04-18T05:56:41.241Z,6.65
2023-04-18T05:59:43.818Z,6.32
2023-04-18T06:02:46.876Z,7.32
2023-04-18T06:05:49.494Z,7.43
2023-04-18T06:08:52.515Z,7.35
2023-04-18T06:11:55.052Z,6.60
2023-04-18T06:14:57.763Z,7.85
2023-04-18T06:18:00.345Z,6.70
2023-04-18T06:21:03.053Z,7.05
2023-04-18T06:24:05.825Z,6.65
2023-04-18T06:27:17.563Z,6.57
2023-04-18T06:30:27.056Z,7.55
2023-04-18T06:33:29.723Z,7.10
2023-04-18T06:36:32.704Z,6.45
2023-04-18T06:39:35.794Z,6.35
2023-04-18T06:42:38.651Z,7.05
2023-04-18T06:45:41.012Z,6.80
2023-04-18T06:48:43.863Z,5.90
2023-04-18T06:51:46.228Z,7.85
2023-04-18T06:54:48.703Z,6.68
2023-04-18T06:57:51.320Z,6.85
2023-04-18T07:00:53.913Z,7.13
2023-04-18T07:03:56.645Z,6.85
2023-04-18T07:06:59.707Z,5.40
2023-04-18T07:10:02.739Z,6.75
2023-04-18T07:13:05.244Z,6.40
2023-04-18T07:16:08.264Z,5.43
2023-04-18T07:19:11.024Z,7.20
2023-04-18T07:22:13.846Z,6.45
2023-04-18T07:25:16.721Z,6.80
2023-04-18T07:28:19.606Z,5.65
2023-04-18T07:31:23.114Z,6.75
2023-04-18T07:34:25.768Z,6.78
2023-04-18T07:37:28.555Z,5.80
2023-04-18T07:40:31.289Z,6.18
2023-04-18T07:43:35.028Z,7.10
2023-04-18T07:46:37.583Z,6.22
2023-04-18T07:49:40.666Z,6.15
2023-04-18T07:52:43.943Z,6.20
2023-04-18T07:55:47.064Z,6.65
2023-04-18T07:58:49.822Z,6.07
2023-04-18T08:01:52.932Z,6.38
2023-04-18T08:04:56.293Z,5.10
2023-04-18T08:07:59.439Z,5.68
2023-04-18T08:11:01.827Z,5.20
2023-04-18T08:14:05.009Z,5.00
2023-04-18T08:17:07.992Z,6.93
2023-04-18T08:20:10.247Z,6.38
2023-04-18T08:23:13.325Z,5.03
2023-04-18T08:26:15.647Z,4.97
2023-04-18T08:29:18.812Z,6.05
2023-04-18T08:32:21.898Z,5.10
2023-04-18T08:35:24.122Z,5.15
2023-04-18T08:38:26.817Z,5.13
2023-04-18T08:41:29.237Z,5.50
2023-04-18T08:44:32.010Z,4.55
2023-04-18T08:47:34.625Z,4.88
2023-04-18T08:50:37.746Z,5.40
2023-04-18T08:53:41.181Z,4.70
2023-04-18T08:56:44.302Z,4.15
2023-04-18T08:59:49.634Z,4.72
2023-04-18T09:02:54.947Z,4.35
2023-04-18T09:05:58.233Z,4.45
2023-04-18T09:09:00.959Z,4.00
2023-04-18T09:12:03.954Z,4.82
2023-04-18T09:15:06.869Z,4.30
2023-04-18T09:18:09.752Z,4.40
2023-04-18T09:21:12.921Z,4.10
2023-04-18T09:24:15.830Z,4.43
2023-04-18T09:27:19.344Z,6.03
2023-04-18T09:30:22.104Z,4.22
2023-04-18T09:33:25.166Z,3.67
2023-04-18T09:36:28.065Z,4.35
2023-04-18T09:39:30.848Z,3.90
2023-04-18T09:42:33.924Z,3.88
2023-04-18T09:45:37.266Z,4.13
2023-04-18T09:48:39.591Z,3.95
2023-04-18T09:51:41.954Z,4.32
2023-04-18T09:54:47.703Z,4.25
2023-04-18T09:57:50.653Z,4.88
2023-04-18T10:00:53.827Z,4.30
2023-04-18T10:03:57.633Z,4.13
2023-04-18T10:07:00.930Z,4.20
2023-04-18T10:10:04.450Z,3.05
2023-04-18T10:13:07.430Z,3.47
2023-04-18T10:16:10.121Z,3.83
2023-04-18T10:19:12.973Z,3.53
2023-04-18T10:22:16.114Z,3.45
2023-04-18T10:25:19.912Z,3.33
2023-04-18T10:28:22.883Z,3.80
2023-04-18T10:31:26.141Z,5.25
2023-04-18T10:34:29.785Z,3.70
2023-04-18T10:37:32.871Z,4.70
2023-04-18T10:40:35.584Z,3.47
2023-04-18T10:43:39.192Z,3.65
2023-04-18T10:46:42.246Z,3.20
2023-04-18T10:49:44.714Z,3.28
2023-04-18T10:52:47.880Z,3.17
2023-04-18T10:55:51.145Z,3.53
2023-04-18T10:58:53.703Z,4.45
2023-04-18T11:01:56.473Z,4.70
2023-04-18T11:04:59.234Z,4.70
2023-04-18T11:08:01.894Z,4.28
2023-04-18T11:11:04.502Z,3.63
2023-04-18T11:14:07.381Z,4.05
2023-04-18T11:17:10.375Z,3.78
2023-04-18T11:20:13.130Z,3.78
2023-04-18T11:23:15.841Z,3.97
2023-04-18T11:26:19.196Z,3.97
2023-04-18T11:29:22.703Z,3.35
2023-04-18T11:32:25.741Z,3.67
2023-04-18T11:35:28.854Z,3.92
2023-04-18T11:38:31.790Z,3.97
2023-04-18T11:41:35.365Z,3.95
2023-04-18T11:44:38.001Z,4.60
2023-04-18T11:47:40.297Z,4.15
2023-04-18T11:50:43.314Z,3.92
2023-04-18T11:53:46.242Z,4.10
2023-04-18T11:56:48.946Z,4.03
2023-04-18T11:59:51.664Z,4.28
2023-04-18T12:02:53.989Z,4.68
2023-04-18T12:05:56.982Z,4.15
2023-04-18T12:08:59.661Z,4.10
2023-04-18T12:12:01.941Z,5.68
2023-04-18T12:15:04.690Z,4.38
2023-04-18T12:18:07.830Z,4.07
2023-04-18T12:21:10.803Z,4.28
2023-04-18T12:24:13.699Z,4.70
2023-04-18T12:27:16.586Z,5.03
2023-04-18T12:30:19.340Z,5.05
2023-04-18T12:33:21.553Z,4.47
2023-04-18T12:36:24.280Z,4.18
2023-04-18T12:39:27.036Z,4.40
2023-04-18T12:42:29.895Z,4.80
2023-04-18T12:45:32.574Z,4.65
2023-04-18T12:48:35.603Z,4.18
2023-04-18T12:51:38.893Z,4.43
2023-04-18T12:54:42.140Z,5.18
2023-04-18T12:57:45.511Z,5.35
2023-04-18T13:00:48.280Z,4.70
2023-04-18T13:04:03.798Z,4.60
2023-04-18T13:07:11.150Z,4.85
2023-04-18T13:10:13.891Z,5.25
2023-04-18T13:13:16.612Z,4.93
2023-04-18T13:16:18.860Z,5.05
2023-04-18T13:19:21.606Z,5.15
2023-04-18T13:22:24.879Z,5.25
2023-04-18T13:25:27.428Z,5.25
2023-04-18T13:28:30.142Z,5.28
2023-04-18T13:31:33.238Z,5.78
2023-04-18T13:34:36.593Z,5.10
2023-04-18T13:37:40.006Z,5.25
2023-04-18T13:40:43.540Z,5.72
2023-04-18T13:43:46.634Z,5.85
2023-04-18T13:46:50.107Z,5.75
2023-04-18T13:49:52.723Z,5.85
2023-04-18T13:52:55.498Z,5.43
2023-04-18T13:55:58.418Z,5.18
2023-04-18T13:59:01.262Z,5.60
2023-04-18T14:02:04.117Z,5.53
2023-04-18T14:05:08.011Z,6.20
2023-04-18T14:08:10.676Z,5.68
2023-04-18T14:11:12.888Z,5.35
2023-04-18T14:14:15.560Z,6.45
2023-04-18T14:17:18.062Z,6.00
2023-04-18T14:20:21.001Z,6.28
2023-04-18T14:23:23.948Z,6.18
2023-04-18T14:26:26.957Z,6.18
2023-04-18T14:29:30.069Z,6.13
2023-04-18T14:32:33.403Z,5.97
2023-04-18T14:35:36.229Z,6.38
2023-04-18T14:38:38.978Z,7.63
2023-04-18T14:41:42.002Z,9.13
2023-04-18T14:44:44.537Z,8.07
2023-04-18T14:47:47.217Z,8.82
2023-04-18T14:50:50.566Z,7.60
2023-04-18T14:53:53.782Z,7.00
2023-04-18T14:56:56.743Z,9.48
2023-04-18T14:59:59.433Z,12.65
2023-04-18T15:03:02.933Z,7.65
2023-04-18T15:06:05.518Z,7.13
2023-04-18T15:09:08.173Z,7.32
2023-04-18T15:12:10.878Z,5.88
2023-04-18T15:15:14.767Z,6.80
2023-04-18T15:18:17.851Z,7.05
2023-04-18T15:21:20.881Z,8.23
2023-04-18T15:24:24.352Z,7.57
2023-04-18T15:27:27.181Z,7.10
2023-04-18T15:30:29.691Z,7.43
2023-04-18T15:33:32.415Z,7.57
2023-04-18T15:36:35.065Z,8.57
2023-04-18T15:39:38.131Z,7.43
2023-04-18T15:42:40.385Z,9.40
2023-04-18T15:45:43.181Z,6.63
2023-04-18T15:48:46.586Z,8.52
2023-04-18T15:51:49.866Z,6.35
2023-04-18T15:54:52.916Z,7.93
2023-04-18T15:57:55.966Z,10.10
2023-04-18T16:00:58.904Z,11.45
2023-04-18T16:04:02.432Z,7.10
2023-04-18T16:07:06.564Z,7.68
2023-04-18T16:10:09.930Z,7.38
2023-04-18T16:13:12.358Z,6.57
2023-04-18T16:16:14.857Z,6.03
2023-04-18T16:19:18.198Z,10.27
2023-04-18T16:22:22.141Z,7.68
2023-04-18T16:25:24.913Z,7.05
2023-04-18T16:28:27.644Z,7.03
2023-04-18T16:31:30.443Z,8.88
2023-04-18T16:34:32.786Z,8.20
2023-04-18T16:37:35.430Z,6.80
2023-04-18T16:40:37.873Z,8.05
2023-04-18T16:43:40.208Z,6.45
2023-04-18T16:46:42.491Z,11.23
2023-04-18T16:49:44.890Z,7.13
2023-04-18T16:52:47.787Z,8.93
2023-04-18T16:55:50.499Z,11.43
2023-04-18T16:58:53.638Z,23.67
2023-04-18T17:01:57.718Z,27.08
2023-04-18T17:05:01.653Z,27.40
2023-04-18T17:08:04.963Z,29.13
2023-04-18T17:11:08.709Z,28.92
2023-04-18T17:14:11.952Z,29.63
2023-04-18T17:17:15.527Z,27.52
2023-04-18T17:20:18.193Z,27.65
2023-04-18T17:23:20.814Z,22.42
2023-04-18T17:26:23.608Z,24.85
2023-04-18T17:29:27.378Z,22.73
2023-04-18T17:32:30.905Z,20.50
2023-04-18T17:35:33.594Z,23.17
2023-04-18T17:38:36.166Z,20.20
2023-04-18T17:41:39.532Z,19.95
2023-04-18T17:44:43.306Z,18.25
2023-04-18T17:47:46.444Z,18.02
2023-04-18T17:50:49.425Z,16.60
2023-04-18T17:53:51.948Z,17.85
2023-04-18T17:56:55.125Z,15.75
2023-04-18T17:59:57.943Z,16.83
2023-04-18T18:03:00.911Z,18.60
2023-04-18T18:06:05.370Z,14.82
2023-04-18T18:09:08.457Z,14.60
2023-04-18T18:12:11.159Z,13.73
2023-04-18T18:15:13.881Z,14.50
2023-04-18T18:18:16.162Z,13.32
2023-04-18T18:21:19.145Z,13.32
2023-04-18T18:24:22.625Z,12.10
2023-04-18T18:27:25.941Z,11.68
2023-04-18T18:30:29.028Z,10.77
2023-04-18T18:33:31.369Z,10.57
2023-04-18T18:36:34.573Z,9.88
2023-04-18T18:39:37.279Z,10.63
2023-04-18T18:42:40.105Z,11.43
2023-04-18T18:45:43.534Z,11.38
2023-04-18T18:48:46.556Z,11.10
2023-04-18T18:51:49.138Z,10.50
2023-04-18T18:54:51.614Z,11.27
2023-04-18T18:57:54.262Z,9.52
2023-04-18T19:00:56.644Z,8.88
2023-04-18T19:03:58.983Z,7.72
2023-04-18T19:07:02.122Z,8.40
2023-04-18T19:10:05.103Z,8.20
2023-04-18T19:13:08.246Z,8.98
2023-04-18T19:16:11.285Z,9.02
2023-04-18T19:19:14.292Z,7.07
2023-04-18T19:22:17.775Z,8.07
2023-04-18T19:25:21.753Z,7.80
2023-04-18T19:28:24.037Z,9.90
2023-04-18T19:31:26.868Z,6.95
2023-04-18T19:34:29.763Z,7.32
2023-04-18T19:37:32.755Z,6.85
2023-04-18T19:40:35.751Z,7.75
2023-04-18T19:43:39.160Z,5.85
2023-04-18T19:46:42.346Z,7.85
2023-04-18T19:49:45.854Z,6.70
2023-04-18T19:52:48.568Z,8.40
2023-04-18T19:55:51.424Z,7.10
2023-04-18T19:58:54.165Z,7.28
2023-04-18T20:02:00.979Z,6.50
2023-04-18T20:05:04.473Z,7.20
2023-04-18T20:08:07.869Z,8.25
2023-04-18T20:11:11.680Z,5.68
2023-04-18T20:14:15.431Z,6.40
2023-04-18T20:17:18.923Z,7.30
2023-04-18T20:20:21.590Z,5.40
2023-04-18T20:23:24.455Z,5.68
2023-04-18T20:26:27.106Z,5.72
2023-04-18T20:29:29.994Z,6.50
2023-04-18T20:32:32.798Z,5.55
2023-04-18T20:35:36.421Z,6.72
2023-04-18T20:38:39.951Z,5.75
2023-04-18T20:41:43.623Z,7.82
2023-04-18T20:44:47.355Z,5.43
2023-04-18T20:47:50.629Z,5.75
2023-04-18T20:50:53.780Z,6.38
2023-04-18T20:53:56.036Z,5.65
2023-04-18T20:56:59.501Z,5.80
2023-04-18T21:00:02.445Z,5.45
2023-04-18T21:03:05.528Z,4.97
2023-04-18T21:06:08.394Z,5.47
2023-04-18T21:09:10.928Z,5.03
2023-04-18T21:12:13.659Z,4.53
2023-04-18T21:15:16.586Z,6.35
2023-04-18T21:18:19.371Z,5.10
2023-04-18T21:21:22.011Z,5.40
2023-04-18T21:24:24.645Z,5.38
2023-04-18T21:27:28.002Z,6.93
2023-04-18T21:30:31.077Z,5.60
2023-04-18T21:33:33.877Z,6.40
2023-04-18T21:36:36.451Z,6.38
2023-04-18T21:39:39.377Z,5.28
2023-04-18T21:42:42.139Z,4.85
2023-04-18T21:45:45.366Z,4.78
2023-04-18T21:48:48.659Z,5.90
2023-04-18T21:51:51.200Z,4.88
2023-04-18T21:54:53.613Z,5.32
2023-04-18T21:57:56.697Z,5.82
2023-04-18T22:00:59.787Z,5.57
2023-04-18T22:04:03.447Z,4.45
2023-04-18T22:07:06.334Z,5.28
2023-04-18T22:10:08.633Z,5.20
2023-04-18T22:13:11.531Z,5.47
2023-04-18T22:16:14.494Z,5.75
2023-04-18T22:19:17.110Z,5.03
2023-04-18T22:22:20.097Z,4.40
2023-04-18T22:25:23.662Z,5.43
2023-04-18T22:28:26.270Z,5.60
2023-04-18T22:31:29.380Z,5.30
2023-04-18T22:34:32.034Z,4.63
2023-04-18T22:37:34.721Z,5.82
2023-04-18T22:40:37.424Z,4.15
2023-04-18T22:43:40.107Z,5.60
2023-04-18T22:46:42.702Z,5.13
2023-04-18T22:49:46.183Z,4.43
2023-04-18T22:52:50.009Z,5.35
2023-04-18T22:55:52.952Z,5.20
2023-04-18T22:58:55.691Z,6.00
2023-04-18T23:01:58.895Z,4.95
2023-04-18T23:05:02.833Z,4.97
2023-04-18T23:08:05.291Z,6.38
2023-04-18T23:11:07.773Z,6.68
2023-04-18T23:14:09.916Z,5.80
2023-04-18T23:17:13.064Z,7.35
2023-04-18T23:20:16.029Z,8.20
2023-04-18T23:23:18.700Z,5.95
2023-04-18T23:26:20.944Z,5.35
2023-04-18T23:29:23.664Z,7.13
2023-04-18T23:32:26.618Z,5.57
2023-04-18T23:35:29.898Z,5.30
2023-04-18T23:38:33.251Z,6.00
2023-04-18T23:41:36.692Z,6.60
2023-04-18T23:44:39.624Z,6.45
2023-04-18T23:47:42.459Z,7.45
2023-04-18T23:50:45.954Z,8.23
2023-04-18T23:53:48.664Z,5.55
2023-04-18T23:56:51.943Z,7.97
2023-04-18T23:59:55.831Z,8.13
